createdAt,value
2019-03-17T00:01:33.821Z,2.23
2019-03-17T00:04:02.835Z,2.30
2019-03-17T00:06:31.877Z,2.70
2019-03-17T00:09:00.887Z,2.30
2019-03-17T00:11:29.923Z,2.60
2019-03-17T00:13:59.325Z,2.33
2019-03-17T00:16:28.735Z,2.47
2019-03-17T00:18:57.749Z,2.37
2019-03-17T00:21:26.783Z,1.90
2019-03-17T00:23:56.089Z,2.70
2019-03-17T00:26:25.127Z,2.33
2019-03-17T00:28:54.139Z,2.40
2019-03-17T00:31:24.411Z,2.50
2019-03-17T00:33:53.469Z,2.83
2019-03-17T00:36:22.887Z,2.83
2019-03-17T00:38:51.917Z,2.73
2019-03-17T00:41:21.313Z,2.43
2019-03-17T00:43:50.334Z,2.57
2019-03-17T00:46:19.359Z,2.23
2019-03-17T00:48:48.707Z,2.50
2019-03-17T00:51:17.715Z,2.53
2019-03-17T00:53:46.736Z,2.80
2019-03-17T00:56:15.987Z,2.80
2019-03-17T00:58:44.983Z,2.80
2019-03-17T01:01:14.025Z,3.00
2019-03-17T01:03:43.056Z,2.60
2019-03-17T01:06:12.075Z,2.90
2019-03-17T01:08:41.498Z,2.43
2019-03-17T01:11:11.053Z,2.80
2019-03-17T01:13:40.051Z,2.40
2019-03-17T01:16:09.422Z,2.90
2019-03-17T01:18:38.875Z,2.73
2019-03-17T01:21:08.221Z,2.60
2019-03-17T01:23:37.272Z,2.90
2019-03-17T01:26:06.973Z,2.80
2019-03-17T01:28:36.276Z,2.90
2019-03-17T01:31:05.349Z,2.57
2019-03-17T01:33:34.374Z,2.87
2019-03-17T01:36:03.395Z,3.30
2019-03-17T01:38:32.432Z,3.23
2019-03-17T01:41:01.448Z,3.00
2019-03-17T01:43:30.513Z,3.30
2019-03-17T01:45:59.566Z,3.30
2019-03-17T01:48:28.593Z,3.63
2019-03-17T01:50:57.977Z,3.13
2019-03-17T01:53:27.022Z,3.33
2019-03-17T01:55:56.454Z,3.57
2019-03-17T01:58:25.534Z,3.00
2019-03-17T02:00:54.545Z,3.40
2019-03-17T02:03:23.677Z,3.40
2019-03-17T02:05:53.325Z,3.60
2019-03-17T02:08:22.381Z,4.13
2019-03-17T02:10:51.374Z,3.47
2019-03-17T02:13:20.468Z,3.37
2019-03-17T02:15:49.859Z,3.30
2019-03-17T02:18:19.516Z,3.40
2019-03-17T02:20:49.236Z,3.50
2019-03-17T02:23:18.533Z,3.77
2019-03-17T02:25:47.574Z,3.80
2019-03-17T02:28:17.038Z,3.20
2019-03-17T02:30:46.059Z,3.73
2019-03-17T02:33:15.092Z,3.27
2019-03-17T02:35:44.435Z,3.83
2019-03-17T02:38:13.429Z,3.53
2019-03-17T02:40:42.858Z,3.50
2019-03-17T02:43:12.240Z,3.60
2019-03-17T02:45:41.304Z,3.13
2019-03-17T02:48:10.275Z,3.33
2019-03-17T02:50:39.312Z,3.53
2019-03-17T02:53:08.320Z,4.00
2019-03-17T02:55:37.319Z,4.07
2019-03-17T02:58:06.744Z,3.60
2019-03-17T03:00:35.781Z,3.93
2019-03-17T03:03:05.080Z,3.50
2019-03-17T03:05:34.070Z,3.90
2019-03-17T03:08:03.444Z,3.20
2019-03-17T03:10:32.662Z,3.80
2019-03-17T03:13:01.669Z,3.67
2019-03-17T03:15:31.033Z,3.40
2019-03-17T03:18:00.200Z,3.80
2019-03-17T03:20:29.517Z,3.33
2019-03-17T03:22:58.903Z,3.00
2019-03-17T03:25:27.904Z,3.27
2019-03-17T03:27:57.301Z,3.37
2019-03-17T03:30:26.781Z,3.27
2019-03-17T03:32:55.848Z,2.00
2019-03-17T03:35:24.818Z,1.83
2019-03-17T03:37:53.858Z,1.40
2019-03-17T03:40:23.220Z,1.27
2019-03-17T03:42:52.501Z,1.37
2019-03-17T03:45:21.520Z,0.90
2019-03-17T03:47:51.025Z,1.13
2019-03-17T03:50:20.007Z,1.00
2019-03-17T03:52:49.116Z,0.60
2019-03-17T03:55:18.143Z,0.80
2019-03-17T03:57:47.146Z,0.83
2019-03-17T04:00:17.195Z,1.00
2019-03-17T04:02:46.227Z,0.67
2019-03-17T04:05:15.616Z,0.80
2019-03-17T04:07:44.793Z,0.70
2019-03-17T04:10:13.823Z,0.80
2019-03-17T04:12:42.829Z,1.00
2019-03-17T04:15:12.189Z,1.00
2019-03-17T04:17:41.231Z,0.80
2019-03-17T04:20:10.886Z,0.70
2019-03-17T04:22:39.926Z,0.70
2019-03-17T04:25:09.238Z,0.90
2019-03-17T04:27:38.606Z,1.03
2019-03-17T04:30:08.355Z,0.80
2019-03-17T04:32:37.815Z,0.83
2019-03-17T04:35:07.036Z,0.67
2019-03-17T04:37:36.075Z,1.00
2019-03-17T04:40:05.499Z,1.00
2019-03-17T04:42:34.862Z,0.90
2019-03-17T04:45:03.918Z,0.60
2019-03-17T04:47:33.029Z,0.80
2019-03-17T04:50:02.055Z,1.00
2019-03-17T04:52:31.108Z,0.73
2019-03-17T04:55:00.373Z,0.80
2019-03-17T04:57:29.332Z,1.00
2019-03-17T04:59:58.359Z,0.73
2019-03-17T05:02:27.371Z,0.90
2019-03-17T05:04:56.396Z,1.00
2019-03-17T05:07:25.448Z,1.13
2019-03-17T05:09:54.753Z,1.10
2019-03-17T05:12:23.772Z,0.97
2019-03-17T05:14:52.768Z,1.30
2019-03-17T05:17:21.796Z,1.20
2019-03-17T05:19:50.851Z,1.17
2019-03-17T05:22:19.859Z,1.20
2019-03-17T05:24:49.254Z,0.90
2019-03-17T05:27:18.282Z,1.50
2019-03-17T05:29:49.590Z,1.10
2019-03-17T05:32:18.916Z,1.50
2019-03-17T05:34:48.320Z,1.20
2019-03-17T05:37:17.674Z,1.23
2019-03-17T05:39:46.680Z,1.30
2019-03-17T05:42:16.024Z,1.50
2019-03-17T05:44:45.050Z,1.60
2019-03-17T05:47:14.399Z,1.30
2019-03-17T05:49:43.415Z,1.47
2019-03-17T05:52:12.438Z,1.17
2019-03-17T05:54:41.522Z,1.13
2019-03-17T05:57:10.545Z,1.10
2019-03-17T05:59:39.873Z,1.03
2019-03-17T06:02:08.927Z,1.37
2019-03-17T06:04:37.940Z,1.23
2019-03-17T06:07:17.961Z,1.50
2019-03-17T06:09:37.708Z,1.50
2019-03-17T06:12:06.792Z,1.50
2019-03-17T06:14:35.804Z,1.20
2019-03-17T06:17:04.820Z,1.50
2019-03-17T06:19:34.238Z,1.33
2019-03-17T06:22:03.264Z,1.33
2019-03-17T06:24:32.292Z,1.40
2019-03-17T06:27:01.590Z,1.30
2019-03-17T06:29:30.612Z,1.17
2019-03-17T06:31:59.620Z,1.33
2019-03-17T06:34:28.657Z,1.20
2019-03-17T06:36:57.704Z,0.90
2019-03-17T06:39:26.688Z,1.53
2019-03-17T06:41:56.072Z,1.50
2019-03-17T06:44:25.090Z,1.63
2019-03-17T06:46:54.457Z,1.70
2019-03-17T06:49:23.487Z,1.00
2019-03-17T06:51:52.524Z,1.30
2019-03-17T06:54:21.517Z,1.20
2019-03-17T06:56:50.928Z,1.50
2019-03-17T06:59:19.932Z,1.60
2019-03-17T07:01:48.959Z,1.50
2019-03-17T07:04:17.969Z,1.27
2019-03-17T07:06:47.016Z,1.67
2019-03-17T07:09:16.016Z,1.70
2019-03-17T07:11:45.080Z,2.30
2019-03-17T07:14:14.100Z,1.23
2019-03-17T07:16:43.152Z,1.77
2019-03-17T07:19:12.832Z,1.73
2019-03-17T07:21:41.848Z,1.60
2019-03-17T07:24:10.851Z,1.70
2019-03-17T07:26:39.978Z,1.47
2019-03-17T07:29:09.045Z,1.67
2019-03-17T07:31:38.048Z,1.87
2019-03-17T07:34:07.062Z,2.00
2019-03-17T07:36:36.083Z,1.43
2019-03-17T07:39:11.923Z,2.17
2019-03-17T07:41:38.232Z,1.30
2019-03-17T07:44:07.255Z,2.13
2019-03-17T07:46:36.328Z,2.10
2019-03-17T07:49:05.336Z,1.67
2019-03-17T07:51:34.368Z,1.80
2019-03-17T07:54:03.364Z,2.13
2019-03-17T07:56:32.686Z,1.80
2019-03-17T07:59:01.746Z,2.00
2019-03-17T08:01:31.092Z,2.20
2019-03-17T08:04:00.114Z,1.80
2019-03-17T08:06:29.506Z,2.17
2019-03-17T08:08:58.860Z,1.70
2019-03-17T08:11:28.256Z,1.70
2019-03-17T08:13:57.301Z,1.37
2019-03-17T08:16:26.636Z,1.90
2019-03-17T08:18:56.026Z,1.63
2019-03-17T08:21:25.328Z,2.00
2019-03-17T08:23:54.365Z,2.10
2019-03-17T08:26:23.398Z,1.57
2019-03-17T08:28:52.468Z,1.77
2019-03-17T08:31:21.478Z,1.67
2019-03-17T08:33:50.502Z,1.90
2019-03-17T08:36:19.580Z,1.60
2019-03-17T08:38:48.593Z,1.40
2019-03-17T08:41:17.614Z,1.33
2019-03-17T08:43:54.197Z,1.67
2019-03-17T08:46:17.765Z,1.40
2019-03-17T08:48:47.122Z,1.40
2019-03-17T08:51:16.487Z,1.83
2019-03-17T08:53:45.486Z,1.40
2019-03-17T08:56:14.544Z,1.40
2019-03-17T08:58:43.540Z,0.97
2019-03-17T09:01:13.120Z,1.20
2019-03-17T09:03:42.282Z,1.00
2019-03-17T09:06:11.300Z,1.07
2019-03-17T09:08:40.427Z,1.30
2019-03-17T09:11:09.713Z,1.20
2019-03-17T09:13:38.736Z,1.00
2019-03-17T09:16:07.778Z,1.40
2019-03-17T09:18:36.795Z,1.40
2019-03-17T09:21:06.163Z,1.30
2019-03-17T09:23:35.448Z,1.40
2019-03-17T09:26:05.077Z,1.00
2019-03-17T09:28:34.126Z,1.00
2019-03-17T09:31:06.080Z,0.90
2019-03-17T09:33:34.174Z,1.10
2019-03-17T09:36:03.459Z,1.00
2019-03-17T09:38:32.629Z,0.70
2019-03-17T09:41:01.614Z,1.17
2019-03-17T09:43:30.832Z,1.00
2019-03-17T09:46:00.204Z,1.10
2019-03-17T09:48:29.201Z,1.20
2019-03-17T09:50:58.527Z,1.10
2019-03-17T09:53:28.728Z,0.93
2019-03-17T09:55:57.887Z,1.30
2019-03-17T09:58:26.948Z,0.93
2019-03-17T10:00:56.217Z,1.15
2019-03-17T10:03:25.894Z,1.40
2019-03-17T10:05:54.899Z,1.27
2019-03-17T10:08:24.044Z,1.10
2019-03-17T10:10:53.060Z,1.33
2019-03-17T10:13:22.414Z,1.40
2019-03-17T10:15:51.435Z,1.10
2019-03-17T10:18:20.462Z,1.20
2019-03-17T10:20:49.800Z,1.03
2019-03-17T10:23:19.068Z,1.13
2019-03-17T10:25:48.176Z,0.90
2019-03-17T10:28:17.186Z,0.80
2019-03-17T10:30:46.507Z,1.20
2019-03-17T10:33:15.711Z,1.10
2019-03-17T10:35:44.741Z,1.20
2019-03-17T10:38:13.762Z,1.07
2019-03-17T10:40:43.111Z,0.97
2019-03-17T10:43:12.532Z,1.20
2019-03-17T10:45:41.606Z,0.80
2019-03-17T10:48:10.621Z,1.50
2019-03-17T10:50:49.019Z,0.97
2019-03-17T10:53:10.726Z,0.80
2019-03-17T10:55:39.784Z,0.80
2019-03-17T10:58:09.141Z,1.00
2019-03-17T11:00:38.448Z,0.60
2019-03-17T11:03:07.493Z,0.80
2019-03-17T11:05:36.485Z,0.70
2019-03-17T11:08:05.867Z,0.60
2019-03-17T11:10:34.901Z,0.80
2019-03-17T11:13:03.920Z,0.70
2019-03-17T11:15:32.958Z,0.93
2019-03-17T11:18:01.959Z,0.93
2019-03-17T11:20:31.318Z,0.77
2019-03-17T11:23:00.346Z,0.70
2019-03-17T11:25:29.374Z,0.50
2019-03-17T11:27:58.706Z,0.77
2019-03-17T11:30:28.040Z,0.40
2019-03-17T11:32:57.382Z,0.43
2019-03-17T11:35:26.843Z,0.60
2019-03-17T11:37:56.216Z,0.47
2019-03-17T11:40:26.007Z,0.63
2019-03-17T11:42:55.399Z,0.50
2019-03-17T11:45:24.516Z,0.60
2019-03-17T11:47:53.948Z,0.60
2019-03-17T11:50:23.715Z,0.30
2019-03-17T11:52:53.421Z,0.87
2019-03-17T11:55:22.731Z,0.60
2019-03-17T11:57:51.738Z,0.70
2019-03-17T12:00:20.780Z,0.93
2019-03-17T12:02:50.148Z,0.97
2019-03-17T12:05:19.172Z,0.90
2019-03-17T12:07:48.941Z,1.17
2019-03-17T12:10:19.027Z,1.17
2019-03-17T12:12:48.110Z,1.00
2019-03-17T12:15:17.634Z,0.90
2019-03-17T12:17:46.675Z,0.90
2019-03-17T12:20:16.044Z,1.13
2019-03-17T12:22:45.121Z,0.70
2019-03-17T12:25:14.956Z,0.77
2019-03-17T12:27:44.293Z,0.70
2019-03-17T12:30:19.234Z,1.03
2019-03-17T12:32:48.429Z,0.53
2019-03-17T12:35:17.506Z,0.57
2019-03-17T12:37:47.228Z,0.50
2019-03-17T12:40:16.386Z,0.73
2019-03-17T12:42:45.797Z,0.70
2019-03-17T12:45:15.027Z,0.70
2019-03-17T12:47:44.439Z,0.90
2019-03-17T12:50:14.211Z,0.90
2019-03-17T12:52:43.245Z,0.70
2019-03-17T12:55:15.245Z,0.70
2019-03-17T12:57:44.582Z,0.67
2019-03-17T13:00:15.108Z,0.50
2019-03-17T13:02:44.169Z,0.90
2019-03-17T13:05:14.193Z,0.77
2019-03-17T13:07:43.209Z,0.57
2019-03-17T13:10:16.130Z,0.30
2019-03-17T13:12:44.987Z,0.30
2019-03-17T13:15:14.029Z,0.40
2019-03-17T13:17:43.115Z,1.57
2019-03-17T13:20:12.977Z,1.80
2019-03-17T13:22:41.988Z,2.20
2019-03-17T13:25:13.379Z,0.90
2019-03-17T13:27:42.469Z,0.80
2019-03-17T13:30:12.490Z,0.50
2019-03-17T13:32:41.515Z,0.80
2019-03-17T13:35:10.595Z,2.67
2019-03-17T13:37:39.658Z,0.73
2019-03-17T13:40:10.719Z,5.40
2019-03-17T13:42:40.105Z,1.10
2019-03-17T13:45:09.954Z,0.80
2019-03-17T13:47:38.995Z,0.90
2019-03-17T13:50:10.137Z,0.60
2019-03-17T13:52:39.185Z,1.20
2019-03-17T13:55:08.624Z,1.43
2019-03-17T13:57:37.899Z,0.73
2019-03-17T14:00:09.244Z,1.00
2019-03-17T14:02:38.288Z,2.10
2019-03-17T14:05:07.899Z,1.60
2019-03-17T14:07:37.346Z,2.10
2019-03-17T14:10:13.784Z,1.10
2019-03-17T14:12:39.623Z,0.63
2019-03-17T14:15:09.999Z,0.90
2019-03-17T14:17:38.985Z,5.00
2019-03-17T14:20:11.150Z,0.90
2019-03-17T14:22:40.209Z,0.60
2019-03-17T14:25:12.910Z,1.00
2019-03-17T14:27:41.923Z,1.00
2019-03-17T14:30:13.043Z,0.73
2019-03-17T14:32:42.653Z,1.20
2019-03-17T14:35:11.671Z,1.00
2019-03-17T14:37:40.711Z,0.97
2019-03-17T14:40:11.036Z,0.80
2019-03-17T14:42:40.053Z,1.10
2019-03-17T14:45:09.936Z,0.80
2019-03-17T14:47:39.024Z,1.00
2019-03-17T14:50:10.097Z,0.80
2019-03-17T14:52:39.455Z,0.90
2019-03-17T14:55:08.574Z,0.90
2019-03-17T14:57:37.607Z,0.60
2019-03-17T15:00:08.839Z,1.00
2019-03-17T15:02:37.855Z,0.80
2019-03-17T15:05:07.847Z,0.70
2019-03-17T15:07:37.185Z,0.70
2019-03-17T15:10:07.710Z,0.60
2019-03-17T15:12:37.047Z,0.60
2019-03-17T15:15:07.354Z,0.80
2019-03-17T15:17:36.385Z,0.60
2019-03-17T15:20:06.961Z,0.60
2019-03-17T15:22:35.985Z,1.10
2019-03-17T15:25:05.839Z,0.70
2019-03-17T15:27:35.162Z,0.80
2019-03-17T15:30:05.101Z,0.67
2019-03-17T15:32:34.135Z,0.70
2019-03-17T15:35:03.514Z,0.80
2019-03-17T15:37:32.606Z,0.70
2019-03-17T15:40:01.641Z,1.00
2019-03-17T15:42:31.063Z,0.80
2019-03-17T15:45:00.169Z,0.77
2019-03-17T15:47:29.393Z,1.20
2019-03-17T15:49:58.509Z,0.73
2019-03-17T15:52:28.175Z,1.17
2019-03-17T15:54:57.192Z,1.80
2019-03-17T15:57:26.257Z,1.67
2019-03-17T15:59:55.615Z,1.10
2019-03-17T16:02:24.675Z,1.00
2019-03-17T16:04:53.695Z,1.00
2019-03-17T16:07:23.051Z,1.00
2019-03-17T16:09:52.055Z,1.10
2019-03-17T16:12:21.146Z,1.70
2019-03-17T16:14:50.723Z,1.47
2019-03-17T16:17:20.156Z,1.30
2019-03-17T16:19:49.177Z,1.00
2019-03-17T16:22:18.236Z,1.50
2019-03-17T16:24:47.311Z,1.57
2019-03-17T16:27:16.552Z,1.40
2019-03-17T16:29:45.539Z,1.20
2019-03-17T16:32:14.891Z,1.40
2019-03-17T16:34:43.968Z,1.27
2019-03-17T16:37:13.001Z,1.30
2019-03-17T16:39:42.068Z,1.40
2019-03-17T16:42:11.099Z,0.90
2019-03-17T16:44:40.155Z,1.17
2019-03-17T16:47:09.428Z,1.30
2019-03-17T16:49:38.453Z,1.30
2019-03-17T16:52:07.518Z,1.50
2019-03-17T16:54:36.611Z,2.73
2019-03-17T16:57:05.950Z,1.27
2019-03-17T16:59:35.003Z,7.80
2019-03-17T17:02:04.038Z,1.80
2019-03-17T17:04:33.068Z,2.33
2019-03-17T17:07:02.622Z,4.87
2019-03-17T17:09:31.653Z,2.10
2019-03-17T17:12:01.061Z,1.90
2019-03-17T17:14:30.087Z,1.67
2019-03-17T17:16:59.120Z,2.10
2019-03-17T17:19:28.571Z,1.50
2019-03-17T17:21:58.892Z,1.20
2019-03-17T17:24:28.055Z,1.70
2019-03-17T17:26:57.129Z,1.17
2019-03-17T17:29:26.143Z,1.30
2019-03-17T17:31:55.161Z,1.03
2019-03-17T17:34:24.201Z,1.23
2019-03-17T17:36:53.536Z,3.20
2019-03-17T17:39:22.566Z,5.37
2019-03-17T17:41:51.865Z,1.37
2019-03-17T17:44:21.204Z,1.40
2019-03-17T17:46:50.239Z,2.60
2019-03-17T17:49:19.595Z,6.80
2019-03-17T17:51:49.185Z,1.40
2019-03-17T17:54:18.299Z,2.10
2019-03-17T17:56:47.404Z,1.43
2019-03-17T17:59:16.904Z,1.90
2019-03-17T18:01:46.100Z,2.20
2019-03-17T18:04:15.186Z,1.53
2019-03-17T18:06:44.522Z,1.87
2019-03-17T18:09:13.525Z,3.73
2019-03-17T18:11:42.667Z,2.87
2019-03-17T18:14:11.696Z,3.53
2019-03-17T18:16:41.732Z,2.10
2019-03-17T18:19:10.850Z,1.83
2019-03-17T18:21:39.924Z,2.20
2019-03-17T18:24:08.969Z,1.70
2019-03-17T18:26:38.047Z,1.80
2019-03-17T18:29:07.091Z,2.13
2019-03-17T18:31:36.452Z,1.70
2019-03-17T18:34:05.539Z,1.43
2019-03-17T18:36:34.567Z,1.87
2019-03-17T18:39:04.559Z,2.07
2019-03-17T18:41:33.895Z,1.37
2019-03-17T18:44:02.926Z,1.50
2019-03-17T18:46:31.958Z,1.40
2019-03-17T18:49:01.274Z,1.10
2019-03-17T18:51:30.345Z,1.10
2019-03-17T18:53:59.401Z,1.00
2019-03-17T18:56:28.411Z,1.00
2019-03-17T18:58:57.465Z,1.00
2019-03-17T19:01:26.851Z,1.10
2019-03-17T19:03:55.875Z,1.10
2019-03-17T19:06:24.968Z,1.17
2019-03-17T19:08:54.140Z,0.80
2019-03-17T19:11:23.182Z,0.90
2019-03-17T19:13:52.470Z,1.10
2019-03-17T19:16:21.494Z,1.10
2019-03-17T19:18:51.093Z,0.87
2019-03-17T19:21:20.083Z,1.07
2019-03-17T19:23:49.176Z,0.90
2019-03-17T19:26:18.182Z,1.00
2019-03-17T19:28:47.254Z,1.23
2019-03-17T19:31:16.519Z,1.00
2019-03-17T19:33:46.162Z,1.10
2019-03-17T19:36:15.193Z,0.90
2019-03-17T19:38:44.242Z,0.87
2019-03-17T19:41:13.258Z,1.50
2019-03-17T19:43:42.282Z,0.90
2019-03-17T19:46:11.623Z,1.10
2019-03-17T19:48:40.911Z,1.20
2019-03-17T19:51:09.939Z,1.27
2019-03-17T19:53:39.259Z,0.77
2019-03-17T19:56:08.288Z,1.10
2019-03-17T19:58:40.438Z,1.07
2019-03-17T20:01:08.440Z,1.00
2019-03-17T20:03:37.738Z,1.20
2019-03-17T20:06:07.033Z,1.50
2019-03-17T20:08:36.420Z,1.77
2019-03-17T20:11:05.848Z,1.33
2019-03-17T20:13:34.959Z,1.53
2019-03-17T20:16:04.246Z,1.50
2019-03-17T20:18:33.278Z,1.53
2019-03-17T20:21:02.281Z,1.70
2019-03-17T20:23:31.577Z,1.50
2019-03-17T20:26:00.592Z,1.60
2019-03-17T20:28:29.931Z,1.80
2019-03-17T20:30:58.961Z,1.97
2019-03-17T20:33:27.988Z,1.77
2019-03-17T20:35:57.031Z,1.87
2019-03-17T20:38:26.053Z,1.83
2019-03-17T20:40:55.114Z,1.80
2019-03-17T20:43:34.733Z,1.80
2019-03-17T20:45:55.409Z,1.77
2019-03-17T20:48:25.346Z,2.00
2019-03-17T20:50:54.668Z,2.03
2019-03-17T20:53:23.745Z,1.90
2019-03-17T20:55:53.092Z,1.93
2019-03-17T20:58:22.399Z,2.50
2019-03-17T21:00:51.433Z,2.20
2019-03-17T21:03:20.448Z,2.33
2019-03-17T21:05:49.468Z,2.13
2019-03-17T21:08:18.770Z,2.47
2019-03-17T21:10:49.970Z,2.33
2019-03-17T21:13:19.115Z,2.20
2019-03-17T21:15:48.161Z,1.73
2019-03-17T21:18:17.479Z,2.17
2019-03-17T21:20:46.763Z,2.40
2019-03-17T21:23:15.760Z,2.10
2019-03-17T21:25:44.879Z,2.00
2019-03-17T21:28:13.925Z,1.93
2019-03-17T21:30:42.996Z,2.40
2019-03-17T21:33:12.588Z,2.60
2019-03-17T21:35:41.631Z,2.43
2019-03-17T21:38:10.879Z,1.90
2019-03-17T21:40:56.166Z,2.17
2019-03-17T21:43:11.446Z,2.30
2019-03-17T21:45:40.458Z,2.00
2019-03-17T21:48:09.481Z,2.20
2019-03-17T21:50:38.478Z,2.47
2019-03-17T21:53:07.505Z,2.63
2019-03-17T21:55:37.087Z,1.90
2019-03-17T21:58:08.215Z,1.90
2019-03-17T22:00:36.854Z,1.60
2019-03-17T22:03:05.857Z,1.70
2019-03-17T22:05:35.405Z,1.93
2019-03-17T22:08:04.409Z,1.63
2019-03-17T22:10:34.016Z,1.90
2019-03-17T22:13:03.044Z,1.97
2019-03-17T22:15:32.033Z,1.90
2019-03-17T22:18:01.060Z,2.10
2019-03-17T22:20:30.049Z,1.70
2019-03-17T22:22:59.324Z,2.00
2019-03-17T22:25:28.602Z,1.63
2019-03-17T22:28:07.678Z,1.80
2019-03-17T22:30:28.630Z,1.73
2019-03-17T22:32:57.693Z,1.80
2019-03-17T22:35:26.752Z,1.90
2019-03-17T22:37:55.783Z,1.80
2019-03-17T22:40:24.788Z,2.17
2019-03-17T22:42:54.068Z,2.63
2019-03-17T22:45:23.083Z,2.50
2019-03-17T22:47:52.109Z,2.30
2019-03-17T22:50:21.142Z,2.27
2019-03-17T22:52:50.159Z,2.10
2019-03-17T22:55:19.228Z,2.10
2019-03-17T22:57:48.222Z,2.10
2019-03-17T23:00:21.752Z,2.00
2019-03-17T23:02:50.756Z,1.90
2019-03-17T23:05:20.180Z,2.63
2019-03-17T23:07:49.564Z,2.07
2019-03-17T23:10:18.694Z,2.17
2019-03-17T23:12:48.483Z,1.93
2019-03-17T23:15:17.624Z,2.10
2019-03-17T23:17:47.396Z,2.07
2019-03-17T23:20:17.017Z,2.60
2019-03-17T23:22:46.312Z,1.90
2019-03-17T23:25:15.659Z,2.13
2019-03-17T23:27:45.020Z,2.27
2019-03-17T23:30:14.402Z,2.10
2019-03-17T23:32:43.428Z,2.70
2019-03-17T23:35:12.480Z,2.53
2019-03-17T23:37:41.529Z,2.30
2019-03-17T23:40:11.054Z,2.20
2019-03-17T23:42:40.414Z,2.30
2019-03-17T23:45:10.078Z,2.30
2019-03-17T23:47:39.088Z,2.87
2019-03-17T23:50:08.268Z,2.67
2019-03-17T23:52:37.263Z,2.33
2019-03-17T23:55:06.486Z,2.47
2019-03-17T23:57:35.498Z,2.50
